Terminal Aerodrome Forecast
Issued by NWS Medford, OR

Home | Current Version | Previous Version | Text Only | Print | Product List | Glossary On
Versions: 1 2 3 4 5 6 7 8 9 10 11 12 13 14 15 16 17 18 19 20 21 22 23
859
FTUS46 KMFR 270102 AAB
TAFMFR
TAF AMD
KMFR 270102Z 2701/2724 23005KT P6SM VCSH FEW020 BKN035 BKN060
     FM270900 25005KT 5SM -SHSN BR SCT010 BKN020 OVC040
     FM271200 VRB02KT P6SM VCSH FEW010 BKN035 BKN050
     FM271800 30007KT P6SM -SHRA SCT025 BKN035 BKN050=

USA.gov is the U.S. government's official web portal to all federal, state and local government web resources and services.